Capitol Logistics 17


RCTP
Taiwan Taoyuan International Airport
Taipei, TW
PANC
Ted Stevens Anchorage International Airport
Anchorage, US

Route Details

Aircraft Information
Primary: Boeing 747-400BCF
Backup: Boeing 777-200LRF
Route Data
Distance: 4065nm
Sched. Duration: 8h 30m
Avg. Duration: 8h 59m (+30m)
Times Flown: 4
Recm'd Route: MOLKA M750 MIDAI M750 BUNGU Y81 SYOYU Y809 KAGIS A590 PABBA A590 PASRO A590 HAMND NEELL6
Planned Altitude: 33,000ft
Origin Wx: RCTP 222100Z 08017KT 9999 FEW015 SCT025 BKN040 17/12 Q1026 WS R05R NOSIG RMK A3031
Dest. Wx: PANC 222053Z 20004KT 8SM -SN BKN017 OVC030 M07/M09 A2962 RMK AO2 SNB51 SLP035 P0000 60000 T10671094 51021 $
Notes:

Financial History
Total Freight: 671,361lbs
Average Load: 167,840lbs/flt
Fuel Used: 787,184lbs
Avg. Fuel Used: 196,796lbs/flt
Fuel Expense: $858,031
Avg. Fuel Expense: $214,508
Avg. Fuel Cost: $1.09/lbs
Total Gross Income: $5,304,879
Pilot Pay: $936
Total Expenses: $573,135
Total Revenue: $3,865,340
Average Revenue: $1,326,219.66